sensor_id;sensor_type;location;lat;lon;timestamp;P1;durP1;ratioP1;P2;durP2;ratioP2
12441;SDS011;6285;48.804;9.220;2022-12-24T00:00:55;23.63;;;12.02;;
12441;SDS011;6285;48.804;9.220;2022-12-24T00:03:22;11.02;;;4.40;;
12441;SDS011;6285;48.804;9.220;2022-12-24T00:05:49;8.20;;;3.63;;
12441;SDS011;6285;48.804;9.220;2022-12-24T00:08:16;7.88;;;3.13;;
12441;SDS011;6285;48.804;9.220;2022-12-24T00:10:43;8.30;;;3.50;;
12441;SDS011;6285;48.804;9.220;2022-12-24T00:13:11;7.15;;;2.28;;
12441;SDS011;6285;48.804;9.220;2022-12-24T00:15:38;8.35;;;2.45;;
12441;SDS011;6285;48.804;9.220;2022-12-24T00:18:06;7.30;;;2.20;;
12441;SDS011;6285;48.804;9.220;2022-12-24T00:20:33;5.47;;;1.90;;
12441;SDS011;6285;48.804;9.220;2022-12-24T00:23:00;4.95;;;2.22;;
12441;SDS011;6285;48.804;9.220;2022-12-24T00:25:27;5.22;;;2.30;;
12441;SDS011;6285;48.804;9.220;2022-12-24T00:27:54;5.97;;;2.20;;
12441;SDS011;6285;48.804;9.220;2022-12-24T00:30:21;6.40;;;2.15;;
12441;SDS011;6285;48.804;9.220;2022-12-24T00:32:48;4.70;;;2.30;;
12441;SDS011;6285;48.804;9.220;2022-12-24T00:35:17;3.85;;;1.80;;
12441;SDS011;6285;48.804;9.220;2022-12-24T00:37:45;6.65;;;2.30;;
12441;SDS011;6285;48.804;9.220;2022-12-24T00:40:12;4.68;;;1.35;;
12441;SDS011;6285;48.804;9.220;2022-12-24T00:42:39;3.47;;;1.48;;
12441;SDS011;6285;48.804;9.220;2022-12-24T00:45:07;4.05;;;1.80;;
12441;SDS011;6285;48.804;9.220;2022-12-24T00:47:34;5.45;;;2.22;;
12441;SDS011;6285;48.804;9.220;2022-12-24T00:50:02;3.83;;;1.60;;
12441;SDS011;6285;48.804;9.220;2022-12-24T00:52:30;4.75;;;2.20;;
12441;SDS011;6285;48.804;9.220;2022-12-24T00:54:57;4.22;;;1.60;;
12441;SDS011;6285;48.804;9.220;2022-12-24T00:57:24;4.28;;;1.45;;
12441;SDS011;6285;48.804;9.220;2022-12-24T00:59:51;4.50;;;1.60;;
12441;SDS011;6285;48.804;9.220;2022-12-24T01:02:18;4.60;;;1.52;;
12441;SDS011;6285;48.804;9.220;2022-12-24T01:04:45;5.10;;;1.73;;
12441;SDS011;6285;48.804;9.220;2022-12-24T01:07:31;5.60;;;2.17;;
12441;SDS011;6285;48.804;9.220;2022-12-24T01:09:58;5.07;;;1.95;;
12441;SDS011;6285;48.804;9.220;2022-12-24T01:12:26;6.20;;;1.77;;
12441;SDS011;6285;48.804;9.220;2022-12-24T01:14:53;6.80;;;1.60;;
12441;SDS011;6285;48.804;9.220;2022-12-24T01:17:20;4.45;;;1.77;;
12441;SDS011;6285;48.804;9.220;2022-12-24T01:19:47;5.60;;;1.80;;
12441;SDS011;6285;48.804;9.220;2022-12-24T01:22:14;5.43;;;2.20;;
12441;SDS011;6285;48.804;9.220;2022-12-24T01:24:42;8.43;;;1.88;;
12441;SDS011;6285;48.804;9.220;2022-12-24T01:27:09;9.77;;;2.10;;
12441;SDS011;6285;48.804;9.220;2022-12-24T01:29:36;8.30;;;1.98;;
12441;SDS011;6285;48.804;9.220;2022-12-24T01:32:04;3.53;;;1.70;;
12441;SDS011;6285;48.804;9.220;2022-12-24T01:34:31;4.55;;;1.70;;
12441;SDS011;6285;48.804;9.220;2022-12-24T01:36:58;5.80;;;1.70;;
12441;SDS011;6285;48.804;9.220;2022-12-24T01:39:25;4.00;;;1.63;;
12441;SDS011;6285;48.804;9.220;2022-12-24T01:41:53;6.10;;;1.60;;
12441;SDS011;6285;48.804;9.220;2022-12-24T01:44:39;4.90;;;1.70;;
12441;SDS011;6285;48.804;9.220;2022-12-24T01:47:07;8.00;;;2.42;;
12441;SDS011;6285;48.804;9.220;2022-12-24T01:49:34;6.18;;;2.00;;
12441;SDS011;6285;48.804;9.220;2022-12-24T01:52:04;7.90;;;2.33;;
12441;SDS011;6285;48.804;9.220;2022-12-24T01:54:33;8.77;;;2.13;;
12441;SDS011;6285;48.804;9.220;2022-12-24T01:57:03;7.25;;;2.40;;
12441;SDS011;6285;48.804;9.220;2022-12-24T01:59:30;5.15;;;2.10;;
12441;SDS011;6285;48.804;9.220;2022-12-24T02:01:58;8.38;;;2.33;;
12441;SDS011;6285;48.804;9.220;2022-12-24T02:04:28;7.10;;;2.45;;
12441;SDS011;6285;48.804;9.220;2022-12-24T02:06:57;5.88;;;1.98;;
12441;SDS011;6285;48.804;9.220;2022-12-24T02:09:24;10.75;;;2.53;;
12441;SDS011;6285;48.804;9.220;2022-12-24T02:11:51;11.07;;;2.17;;
12441;SDS011;6285;48.804;9.220;2022-12-24T02:14:19;6.05;;;2.25;;
12441;SDS011;6285;48.804;9.220;2022-12-24T02:16:49;9.80;;;2.85;;
12441;SDS011;6285;48.804;9.220;2022-12-24T02:19:25;9.13;;;2.63;;
12441;SDS011;6285;48.804;9.220;2022-12-24T02:21:58;7.38;;;2.22;;
12441;SDS011;6285;48.804;9.220;2022-12-24T02:30:04;7.68;;;1.95;;
12441;SDS011;6285;48.804;9.220;2022-12-24T02:32:33;6.43;;;1.80;;
12441;SDS011;6285;48.804;9.220;2022-12-24T02:35:02;11.10;;;2.50;;
12441;SDS011;6285;48.804;9.220;2022-12-24T02:37:32;7.45;;;2.13;;
12441;SDS011;6285;48.804;9.220;2022-12-24T02:40:02;13.80;;;2.63;;
12441;SDS011;6285;48.804;9.220;2022-12-24T02:42:31;8.23;;;2.40;;
12441;SDS011;6285;48.804;9.220;2022-12-24T02:45:01;6.20;;;2.20;;
12441;SDS011;6285;48.804;9.220;2022-12-24T02:47:30;7.05;;;2.47;;
12441;SDS011;6285;48.804;9.220;2022-12-24T02:49:59;10.65;;;2.67;;
12441;SDS011;6285;48.804;9.220;2022-12-24T02:52:27;8.80;;;2.47;;
12441;SDS011;6285;48.804;9.220;2022-12-24T02:54:54;8.60;;;2.70;;
12441;SDS011;6285;48.804;9.220;2022-12-24T02:57:23;8.95;;;2.58;;
12441;SDS011;6285;48.804;9.220;2022-12-24T02:59:58;9.10;;;2.45;;
12441;SDS011;6285;48.804;9.220;2022-12-24T03:02:29;10.90;;;2.88;;
12441;SDS011;6285;48.804;9.220;2022-12-24T03:05:02;8.93;;;2.40;;
12441;SDS011;6285;48.804;9.220;2022-12-24T03:07:35;6.07;;;2.30;;
12441;SDS011;6285;48.804;9.220;2022-12-24T03:10:05;6.82;;;2.00;;
12441;SDS011;6285;48.804;9.220;2022-12-24T03:12:35;7.15;;;2.72;;
12441;SDS011;6285;48.804;9.220;2022-12-24T03:15:05;8.38;;;2.67;;
12441;SDS011;6285;48.804;9.220;2022-12-24T03:17:33;8.65;;;3.40;;
12441;SDS011;6285;48.804;9.220;2022-12-24T03:20:04;6.85;;;2.50;;
12441;SDS011;6285;48.804;9.220;2022-12-24T03:22:32;7.78;;;2.60;;
12441;SDS011;6285;48.804;9.220;2022-12-24T03:25:00;8.70;;;2.47;;
12441;SDS011;6285;48.804;9.220;2022-12-24T03:27:27;7.90;;;2.58;;
12441;SDS011;6285;48.804;9.220;2022-12-24T03:29:56;10.90;;;3.47;;
12441;SDS011;6285;48.804;9.220;2022-12-24T03:32:24;9.43;;;3.47;;
12441;SDS011;6285;48.804;9.220;2022-12-24T03:34:51;8.32;;;4.00;;
12441;SDS011;6285;48.804;9.220;2022-12-24T03:37:19;11.38;;;3.25;;
12441;SDS011;6285;48.804;9.220;2022-12-24T03:39:46;7.38;;;2.72;;
12441;SDS011;6285;48.804;9.220;2022-12-24T03:42:13;13.15;;;3.13;;
12441;SDS011;6285;48.804;9.220;2022-12-24T03:44:40;9.00;;;2.42;;
12441;SDS011;6285;48.804;9.220;2022-12-24T03:47:08;5.40;;;2.25;;
12441;SDS011;6285;48.804;9.220;2022-12-24T03:49:35;10.05;;;3.20;;
12441;SDS011;6285;48.804;9.220;2022-12-24T03:52:02;10.48;;;3.20;;
12441;SDS011;6285;48.804;9.220;2022-12-24T03:54:30;11.43;;;2.63;;
12441;SDS011;6285;48.804;9.220;2022-12-24T03:56:57;9.73;;;2.67;;
12441;SDS011;6285;48.804;9.220;2022-12-24T03:59:24;13.35;;;3.25;;
12441;SDS011;6285;48.804;9.220;2022-12-24T04:01:52;9.27;;;2.65;;
12441;SDS011;6285;48.804;9.220;2022-12-24T04:04:19;9.18;;;2.47;;
12441;SDS011;6285;48.804;9.220;2022-12-24T04:06:46;12.18;;;2.80;;
12441;SDS011;6285;48.804;9.220;2022-12-24T04:09:13;12.07;;;2.60;;
12441;SDS011;6285;48.804;9.220;2022-12-24T04:11:42;9.43;;;3.33;;
12441;SDS011;6285;48.804;9.220;2022-12-24T04:14:09;9.25;;;3.17;;
12441;SDS011;6285;48.804;9.220;2022-12-24T04:16:36;9.15;;;2.70;;
12441;SDS011;6285;48.804;9.220;2022-12-24T04:19:03;9.18;;;2.70;;
12441;SDS011;6285;48.804;9.220;2022-12-24T04:21:30;9.00;;;3.20;;
12441;SDS011;6285;48.804;9.220;2022-12-24T04:23:57;7.45;;;2.53;;
12441;SDS011;6285;48.804;9.220;2022-12-24T04:26:24;9.38;;;2.33;;
12441;SDS011;6285;48.804;9.220;2022-12-24T04:28:53;7.82;;;2.47;;
12441;SDS011;6285;48.804;9.220;2022-12-24T04:31:20;6.57;;;2.40;;
12441;SDS011;6285;48.804;9.220;2022-12-24T04:33:47;9.68;;;2.83;;
12441;SDS011;6285;48.804;9.220;2022-12-24T04:36:17;10.00;;;2.80;;
12441;SDS011;6285;48.804;9.220;2022-12-24T04:38:44;9.40;;;2.85;;
12441;SDS011;6285;48.804;9.220;2022-12-24T04:41:13;10.55;;;3.38;;
12441;SDS011;6285;48.804;9.220;2022-12-24T04:43:41;6.03;;;2.75;;
12441;SDS011;6285;48.804;9.220;2022-12-24T04:46:10;9.38;;;3.33;;
12441;SDS011;6285;48.804;9.220;2022-12-24T04:48:38;9.40;;;3.47;;
12441;SDS011;6285;48.804;9.220;2022-12-24T04:51:06;9.27;;;3.28;;
12441;SDS011;6285;48.804;9.220;2022-12-24T04:53:33;6.57;;;2.90;;
12441;SDS011;6285;48.804;9.220;2022-12-24T04:56:01;5.63;;;3.25;;
12441;SDS011;6285;48.804;9.220;2022-12-24T04:58:28;12.70;;;3.55;;
12441;SDS011;6285;48.804;9.220;2022-12-24T05:00:56;11.85;;;2.88;;
12441;SDS011;6285;48.804;9.220;2022-12-24T05:03:24;7.43;;;3.13;;
12441;SDS011;6285;48.804;9.220;2022-12-24T05:05:51;7.20;;;3.28;;
12441;SDS011;6285;48.804;9.220;2022-12-24T05:08:18;8.98;;;3.05;;
12441;SDS011;6285;48.804;9.220;2022-12-24T05:10:53;9.10;;;3.05;;
12441;SDS011;6285;48.804;9.220;2022-12-24T05:13:20;7.93;;;2.83;;
12441;SDS011;6285;48.804;9.220;2022-12-24T05:15:47;7.45;;;2.85;;
12441;SDS011;6285;48.804;9.220;2022-12-24T05:18:14;6.03;;;2.50;;
12441;SDS011;6285;48.804;9.220;2022-12-24T05:20:42;9.30;;;3.35;;
12441;SDS011;6285;48.804;9.220;2022-12-24T05:23:11;10.07;;;2.85;;
12441;SDS011;6285;48.804;9.220;2022-12-24T05:25:58;9.60;;;2.83;;
12441;SDS011;6285;48.804;9.220;2022-12-24T05:28:43;7.97;;;3.45;;
12441;SDS011;6285;48.804;9.220;2022-12-24T05:31:09;9.18;;;3.13;;
12441;SDS011;6285;48.804;9.220;2022-12-24T05:33:36;13.18;;;3.33;;
12441;SDS011;6285;48.804;9.220;2022-12-24T05:36:05;6.70;;;2.60;;
12441;SDS011;6285;48.804;9.220;2022-12-24T05:38:33;5.53;;;2.17;;
12441;SDS011;6285;48.804;9.220;2022-12-24T05:41:00;9.82;;;3.05;;
12441;SDS011;6285;48.804;9.220;2022-12-24T05:43:27;10.80;;;3.05;;
12441;SDS011;6285;48.804;9.220;2022-12-24T05:45:56;6.07;;;2.22;;
12441;SDS011;6285;48.804;9.220;2022-12-24T05:48:23;11.20;;;2.58;;
12441;SDS011;6285;48.804;9.220;2022-12-24T05:50:51;7.25;;;2.38;;
12441;SDS011;6285;48.804;9.220;2022-12-24T05:53:19;6.68;;;2.47;;
12441;SDS011;6285;48.804;9.220;2022-12-24T05:55:46;9.13;;;2.00;;
12441;SDS011;6285;48.804;9.220;2022-12-24T05:58:14;7.07;;;2.50;;
12441;SDS011;6285;48.804;9.220;2022-12-24T06:00:41;7.63;;;2.35;;
12441;SDS011;6285;48.804;9.220;2022-12-24T06:03:09;9.00;;;2.10;;
12441;SDS011;6285;48.804;9.220;2022-12-24T06:05:36;9.75;;;2.42;;
12441;SDS011;6285;48.804;9.220;2022-12-24T06:08:05;7.78;;;2.30;;
12441;SDS011;6285;48.804;9.220;2022-12-24T06:10:33;7.97;;;2.20;;
12441;SDS011;6285;48.804;9.220;2022-12-24T06:13:00;10.88;;;2.83;;
12441;SDS011;6285;48.804;9.220;2022-12-24T06:15:27;5.80;;;2.47;;
12441;SDS011;6285;48.804;9.220;2022-12-24T06:17:55;9.73;;;2.83;;
12441;SDS011;6285;48.804;9.220;2022-12-24T06:20:22;9.88;;;2.28;;
12441;SDS011;6285;48.804;9.220;2022-12-24T06:22:49;7.93;;;2.00;;
12441;SDS011;6285;48.804;9.220;2022-12-24T06:25:16;6.47;;;1.92;;
12441;SDS011;6285;48.804;9.220;2022-12-24T06:27:44;7.15;;;2.65;;
12441;SDS011;6285;48.804;9.220;2022-12-24T06:30:12;6.72;;;2.10;;
12441;SDS011;6285;48.804;9.220;2022-12-24T06:32:39;9.20;;;2.72;;
12441;SDS011;6285;48.804;9.220;2022-12-24T06:35:06;5.35;;;2.38;;
12441;SDS011;6285;48.804;9.220;2022-12-24T06:37:33;9.82;;;3.08;;
12441;SDS011;6285;48.804;9.220;2022-12-24T06:40:00;7.72;;;2.60;;
12441;SDS011;6285;48.804;9.220;2022-12-24T06:42:27;7.88;;;2.92;;
12441;SDS011;6285;48.804;9.220;2022-12-24T06:44:56;6.65;;;2.67;;
12441;SDS011;6285;48.804;9.220;2022-12-24T06:47:23;5.30;;;2.80;;
12441;SDS011;6285;48.804;9.220;2022-12-24T06:49:50;8.07;;;3.13;;
12441;SDS011;6285;48.804;9.220;2022-12-24T06:52:17;8.40;;;3.42;;
12441;SDS011;6285;48.804;9.220;2022-12-24T06:54:44;7.35;;;3.60;;
12441;SDS011;6285;48.804;9.220;2022-12-24T06:57:11;11.23;;;3.90;;
12441;SDS011;6285;48.804;9.220;2022-12-24T06:59:38;6.97;;;3.80;;
12441;SDS011;6285;48.804;9.220;2022-12-24T07:02:07;11.27;;;3.58;;
12441;SDS011;6285;48.804;9.220;2022-12-24T07:04:34;9.48;;;3.35;;
12441;SDS011;6285;48.804;9.220;2022-12-24T07:07:01;8.07;;;3.20;;
12441;SDS011;6285;48.804;9.220;2022-12-24T07:09:28;11.98;;;3.55;;
12441;SDS011;6285;48.804;9.220;2022-12-24T07:11:55;6.00;;;3.08;;
12441;SDS011;6285;48.804;9.220;2022-12-24T07:14:22;14.52;;;4.88;;
12441;SDS011;6285;48.804;9.220;2022-12-24T07:16:49;13.40;;;4.60;;
12441;SDS011;6285;48.804;9.220;2022-12-24T07:19:18;15.38;;;4.13;;
12441;SDS011;6285;48.804;9.220;2022-12-24T07:21:46;8.32;;;2.40;;
12441;SDS011;6285;48.804;9.220;2022-12-24T07:24:14;10.07;;;3.38;;
12441;SDS011;6285;48.804;9.220;2022-12-24T07:26:41;13.63;;;2.95;;
12441;SDS011;6285;48.804;9.220;2022-12-24T07:29:08;7.32;;;2.80;;
12441;SDS011;6285;48.804;9.220;2022-12-24T07:31:35;9.38;;;2.80;;
12441;SDS011;6285;48.804;9.220;2022-12-24T07:34:02;9.32;;;3.30;;
12441;SDS011;6285;48.804;9.220;2022-12-24T07:36:31;9.40;;;3.40;;
12441;SDS011;6285;48.804;9.220;2022-12-24T07:38:58;8.95;;;2.63;;
12441;SDS011;6285;48.804;9.220;2022-12-24T07:41:25;8.75;;;3.03;;
12441;SDS011;6285;48.804;9.220;2022-12-24T07:43:52;7.50;;;2.53;;
12441;SDS011;6285;48.804;9.220;2022-12-24T07:46:19;6.13;;;2.80;;
12441;SDS011;6285;48.804;9.220;2022-12-24T07:48:46;6.82;;;2.58;;
12441;SDS011;6285;48.804;9.220;2022-12-24T07:51:13;7.45;;;2.88;;
12441;SDS011;6285;48.804;9.220;2022-12-24T07:53:41;8.90;;;2.97;;
12441;SDS011;6285;48.804;9.220;2022-12-24T07:56:12;6.55;;;3.40;;
12441;SDS011;6285;48.804;9.220;2022-12-24T07:58:39;7.60;;;3.25;;
12441;SDS011;6285;48.804;9.220;2022-12-24T08:01:06;10.98;;;3.45;;
12441;SDS011;6285;48.804;9.220;2022-12-24T08:03:34;10.32;;;3.65;;
12441;SDS011;6285;48.804;9.220;2022-12-24T08:06:01;5.93;;;3.15;;
12441;SDS011;6285;48.804;9.220;2022-12-24T08:08:28;6.85;;;2.72;;
12441;SDS011;6285;48.804;9.220;2022-12-24T08:11:00;8.27;;;2.97;;
12441;SDS011;6285;48.804;9.220;2022-12-24T08:13:28;9.75;;;3.35;;
12441;SDS011;6285;48.804;9.220;2022-12-24T08:15:55;7.50;;;3.00;;
12441;SDS011;6285;48.804;9.220;2022-12-24T08:18:22;12.95;;;4.68;;
12441;SDS011;6285;48.804;9.220;2022-12-24T08:20:49;9.88;;;3.65;;
12441;SDS011;6285;48.804;9.220;2022-12-24T08:23:17;12.40;;;4.30;;
12441;SDS011;6285;48.804;9.220;2022-12-24T08:25:45;15.38;;;4.85;;
12441;SDS011;6285;48.804;9.220;2022-12-24T08:28:15;7.57;;;3.97;;
12441;SDS011;6285;48.804;9.220;2022-12-24T08:30:42;7.82;;;3.60;;
12441;SDS011;6285;48.804;9.220;2022-12-24T08:33:09;13.38;;;3.35;;
12441;SDS011;6285;48.804;9.220;2022-12-24T08:35:37;7.85;;;3.47;;
12441;SDS011;6285;48.804;9.220;2022-12-24T08:38:06;9.20;;;3.95;;
12441;SDS011;6285;48.804;9.220;2022-12-24T08:40:34;10.05;;;3.70;;
12441;SDS011;6285;48.804;9.220;2022-12-24T08:43:01;8.25;;;3.08;;
12441;SDS011;6285;48.804;9.220;2022-12-24T08:45:29;8.48;;;3.55;;
12441;SDS011;6285;48.804;9.220;2022-12-24T08:47:57;6.28;;;3.60;;
12441;SDS011;6285;48.804;9.220;2022-12-24T08:50:24;7.38;;;3.28;;
12441;SDS011;6285;48.804;9.220;2022-12-24T08:52:52;9.68;;;3.20;;
12441;SDS011;6285;48.804;9.220;2022-12-24T08:55:19;11.35;;;3.50;;
12441;SDS011;6285;48.804;9.220;2022-12-24T08:57:46;12.18;;;3.67;;
12441;SDS011;6285;48.804;9.220;2022-12-24T09:00:14;7.68;;;3.40;;
12441;SDS011;6285;48.804;9.220;2022-12-24T09:02:42;10.55;;;3.40;;
12441;SDS011;6285;48.804;9.220;2022-12-24T09:05:09;7.70;;;3.65;;
12441;SDS011;6285;48.804;9.220;2022-12-24T09:07:37;11.00;;;3.78;;
12441;SDS011;6285;48.804;9.220;2022-12-24T09:10:04;10.15;;;3.88;;
12441;SDS011;6285;48.804;9.220;2022-12-24T09:12:32;10.82;;;3.72;;
12441;SDS011;6285;48.804;9.220;2022-12-24T09:14:59;9.55;;;3.60;;
12441;SDS011;6285;48.804;9.220;2022-12-24T09:17:26;8.55;;;3.17;;
12441;SDS011;6285;48.804;9.220;2022-12-24T09:19:55;8.55;;;3.33;;
12441;SDS011;6285;48.804;9.220;2022-12-24T09:22:22;12.25;;;3.28;;
12441;SDS011;6285;48.804;9.220;2022-12-24T09:24:49;9.13;;;3.17;;
12441;SDS011;6285;48.804;9.220;2022-12-24T09:27:17;11.05;;;3.15;;
12441;SDS011;6285;48.804;9.220;2022-12-24T09:29:44;12.68;;;4.00;;
12441;SDS011;6285;48.804;9.220;2022-12-24T09:32:11;9.20;;;2.90;;
12441;SDS011;6285;48.804;9.220;2022-12-24T09:34:40;7.53;;;2.45;;
12441;SDS011;6285;48.804;9.220;2022-12-24T09:37:16;8.70;;;3.65;;
12441;SDS011;6285;48.804;9.220;2022-12-24T09:39:43;7.80;;;3.20;;
12441;SDS011;6285;48.804;9.220;2022-12-24T09:42:13;8.98;;;3.05;;
12441;SDS011;6285;48.804;9.220;2022-12-24T09:44:44;8.15;;;2.80;;
12441;SDS011;6285;48.804;9.220;2022-12-24T09:47:15;10.63;;;3.13;;
12441;SDS011;6285;48.804;9.220;2022-12-24T09:49:48;6.13;;;2.88;;
12441;SDS011;6285;48.804;9.220;2022-12-24T09:52:19;9.88;;;2.83;;
12441;SDS011;6285;48.804;9.220;2022-12-24T09:54:50;8.38;;;3.13;;
12441;SDS011;6285;48.804;9.220;2022-12-24T09:57:24;10.75;;;2.58;;
12441;SDS011;6285;48.804;9.220;2022-12-24T09:59:53;11.60;;;3.17;;
12441;SDS011;6285;48.804;9.220;2022-12-24T10:02:21;6.30;;;2.88;;
12441;SDS011;6285;48.804;9.220;2022-12-24T10:04:48;9.18;;;3.33;;
12441;SDS011;6285;48.804;9.220;2022-12-24T10:07:21;7.03;;;3.00;;
12441;SDS011;6285;48.804;9.220;2022-12-24T10:10:05;7.28;;;2.67;;
12441;SDS011;6285;48.804;9.220;2022-12-24T10:12:36;6.15;;;2.60;;
12441;SDS011;6285;48.804;9.220;2022-12-24T10:15:09;8.63;;;3.10;;
12441;SDS011;6285;48.804;9.220;2022-12-24T10:17:43;13.45;;;6.40;;
12441;SDS011;6285;48.804;9.220;2022-12-24T10:20:19;13.88;;;5.20;;
12441;SDS011;6285;48.804;9.220;2022-12-24T10:22:50;10.05;;;4.00;;
12441;SDS011;6285;48.804;9.220;2022-12-24T10:25:20;9.50;;;2.80;;
12441;SDS011;6285;48.804;9.220;2022-12-24T10:27:49;8.75;;;2.60;;
12441;SDS011;6285;48.804;9.220;2022-12-24T10:30:18;9.65;;;2.88;;
12441;SDS011;6285;48.804;9.220;2022-12-24T10:32:46;14.05;;;3.88;;
12441;SDS011;6285;48.804;9.220;2022-12-24T10:35:19;9.02;;;2.58;;
12441;SDS011;6285;48.804;9.220;2022-12-24T10:37:50;7.88;;;2.60;;
12441;SDS011;6285;48.804;9.220;2022-12-24T10:40:22;8.68;;;2.65;;
12441;SDS011;6285;48.804;9.220;2022-12-24T10:42:50;7.20;;;2.90;;
12441;SDS011;6285;48.804;9.220;2022-12-24T10:45:19;9.30;;;2.80;;
12441;SDS011;6285;48.804;9.220;2022-12-24T10:47:48;7.75;;;2.45;;
12441;SDS011;6285;48.804;9.220;2022-12-24T10:50:17;9.90;;;2.85;;
12441;SDS011;6285;48.804;9.220;2022-12-24T10:52:44;11.13;;;3.35;;
12441;SDS011;6285;48.804;9.220;2022-12-24T10:55:21;10.95;;;2.95;;
12441;SDS011;6285;48.804;9.220;2022-12-24T10:57:55;10.00;;;3.70;;
12441;SDS011;6285;48.804;9.220;2022-12-24T11:00:23;15.27;;;6.88;;
12441;SDS011;6285;48.804;9.220;2022-12-24T11:03:05;9.32;;;3.20;;
12441;SDS011;6285;48.804;9.220;2022-12-24T11:05:33;10.57;;;3.13;;
12441;SDS011;6285;48.804;9.220;2022-12-24T11:08:01;12.77;;;4.20;;
12441;SDS011;6285;48.804;9.220;2022-12-24T11:10:29;8.45;;;3.47;;
12441;SDS011;6285;48.804;9.220;2022-12-24T11:12:56;10.70;;;3.20;;
12441;SDS011;6285;48.804;9.220;2022-12-24T11:15:25;10.40;;;2.85;;
12441;SDS011;6285;48.804;9.220;2022-12-24T11:17:53;10.88;;;3.25;;
12441;SDS011;6285;48.804;9.220;2022-12-24T11:20:22;11.95;;;4.47;;
12441;SDS011;6285;48.804;9.220;2022-12-24T11:22:50;17.33;;;9.20;;
12441;SDS011;6285;48.804;9.220;2022-12-24T11:25:18;9.60;;;4.15;;
12441;SDS011;6285;48.804;9.220;2022-12-24T11:27:48;12.18;;;3.67;;
12441;SDS011;6285;48.804;9.220;2022-12-24T11:30:23;11.68;;;3.17;;
12441;SDS011;6285;48.804;9.220;2022-12-24T11:33:08;10.25;;;3.75;;
12441;SDS011;6285;48.804;9.220;2022-12-24T11:35:39;10.70;;;3.75;;
12441;SDS011;6285;48.804;9.220;2022-12-24T11:38:08;9.32;;;3.30;;
12441;SDS011;6285;48.804;9.220;2022-12-24T11:40:36;10.57;;;3.67;;
12441;SDS011;6285;48.804;9.220;2022-12-24T11:43:06;19.85;;;7.10;;
12441;SDS011;6285;48.804;9.220;2022-12-24T11:45:38;7.75;;;3.42;;
12441;SDS011;6285;48.804;9.220;2022-12-24T11:48:21;13.90;;;3.97;;
12441;SDS011;6285;48.804;9.220;2022-12-24T11:50:54;9.13;;;3.63;;
12441;SDS011;6285;48.804;9.220;2022-12-24T11:53:23;12.32;;;3.80;;
12441;SDS011;6285;48.804;9.220;2022-12-24T11:55:52;13.55;;;3.45;;
12441;SDS011;6285;48.804;9.220;2022-12-24T11:58:24;11.00;;;3.53;;
12441;SDS011;6285;48.804;9.220;2022-12-24T12:00:55;12.23;;;3.25;;
12441;SDS011;6285;48.804;9.220;2022-12-24T12:03:28;9.30;;;3.00;;
12441;SDS011;6285;48.804;9.220;2022-12-24T12:05:56;18.73;;;6.13;;
12441;SDS011;6285;48.804;9.220;2022-12-24T12:08:24;7.90;;;3.25;;
12441;SDS011;6285;48.804;9.220;2022-12-24T12:10:52;9.98;;;3.20;;
12441;SDS011;6285;48.804;9.220;2022-12-24T12:13:21;10.10;;;3.33;;
12441;SDS011;6285;48.804;9.220;2022-12-24T12:15:54;7.45;;;2.70;;
12441;SDS011;6285;48.804;9.220;2022-12-24T12:18:27;7.45;;;2.72;;
12441;SDS011;6285;48.804;9.220;2022-12-24T12:20:59;9.05;;;2.88;;
12441;SDS011;6285;48.804;9.220;2022-12-24T12:23:28;11.40;;;2.47;;
12441;SDS011;6285;48.804;9.220;2022-12-24T12:25:56;9.43;;;2.58;;
12441;SDS011;6285;48.804;9.220;2022-12-24T12:28:25;9.18;;;3.03;;
12441;SDS011;6285;48.804;9.220;2022-12-24T12:30:57;14.77;;;4.43;;
12441;SDS011;6285;48.804;9.220;2022-12-24T12:33:27;14.15;;;4.93;;
12441;SDS011;6285;48.804;9.220;2022-12-24T12:35:56;13.32;;;4.32;;
12441;SDS011;6285;48.804;9.220;2022-12-24T12:38:26;8.50;;;2.80;;
12441;SDS011;6285;48.804;9.220;2022-12-24T12:40:59;8.80;;;3.00;;
12441;SDS011;6285;48.804;9.220;2022-12-24T12:43:31;10.07;;;2.97;;
12441;SDS011;6285;48.804;9.220;2022-12-24T12:46:04;9.68;;;3.05;;
12441;SDS011;6285;48.804;9.220;2022-12-24T12:48:41;12.63;;;3.65;;
12441;SDS011;6285;48.804;9.220;2022-12-24T12:51:11;11.13;;;3.25;;
12441;SDS011;6285;48.804;9.220;2022-12-24T12:53:49;8.98;;;3.55;;
12441;SDS011;6285;48.804;9.220;2022-12-24T12:56:21;10.85;;;3.65;;
12441;SDS011;6285;48.804;9.220;2022-12-24T12:58:51;10.13;;;3.80;;
12441;SDS011;6285;48.804;9.220;2022-12-24T13:01:22;12.32;;;3.05;;
12441;SDS011;6285;48.804;9.220;2022-12-24T13:03:59;10.50;;;3.53;;
12441;SDS011;6285;48.804;9.220;2022-12-24T13:06:36;15.57;;;3.60;;
12441;SDS011;6285;48.804;9.220;2022-12-24T13:09:12;10.45;;;3.20;;
12441;SDS011;6285;48.804;9.220;2022-12-24T13:11:45;13.02;;;3.75;;
12441;SDS011;6285;48.804;9.220;2022-12-24T13:14:27;10.65;;;3.67;;
12441;SDS011;6285;48.804;9.220;2022-12-24T13:17:11;8.38;;;3.13;;
12441;SDS011;6285;48.804;9.220;2022-12-24T13:19:48;13.43;;;3.85;;
12441;SDS011;6285;48.804;9.220;2022-12-24T13:22:21;8.57;;;3.40;;
12441;SDS011;6285;48.804;9.220;2022-12-24T13:24:49;13.13;;;3.60;;
12441;SDS011;6285;48.804;9.220;2022-12-24T13:27:18;12.13;;;3.55;;
12441;SDS011;6285;48.804;9.220;2022-12-24T13:29:52;11.27;;;3.53;;
12441;SDS011;6285;48.804;9.220;2022-12-24T13:37:50;10.48;;;3.05;;
12441;SDS011;6285;48.804;9.220;2022-12-24T13:40:21;12.98;;;3.20;;
12441;SDS011;6285;48.804;9.220;2022-12-24T13:42:49;12.00;;;5.18;;
12441;SDS011;6285;48.804;9.220;2022-12-24T13:45:39;9.70;;;3.53;;
12441;SDS011;6285;48.804;9.220;2022-12-24T13:48:12;12.40;;;3.78;;
12441;SDS011;6285;48.804;9.220;2022-12-24T13:50:42;8.75;;;3.13;;
12441;SDS011;6285;48.804;9.220;2022-12-24T13:53:19;10.10;;;3.95;;
12441;SDS011;6285;48.804;9.220;2022-12-24T13:55:49;11.95;;;3.45;;
12441;SDS011;6285;48.804;9.220;2022-12-24T13:58:17;10.88;;;3.17;;
12441;SDS011;6285;48.804;9.220;2022-12-24T14:00:50;11.23;;;3.42;;
12441;SDS011;6285;48.804;9.220;2022-12-24T14:03:21;16.60;;;4.22;;
12441;SDS011;6285;48.804;9.220;2022-12-24T14:05:52;13.82;;;4.53;;
12441;SDS011;6285;48.804;9.220;2022-12-24T14:08:26;14.13;;;4.05;;
12441;SDS011;6285;48.804;9.220;2022-12-24T14:10:58;14.48;;;4.03;;
12441;SDS011;6285;48.804;9.220;2022-12-24T14:16:15;13.00;;;4.05;;
12441;SDS011;6285;48.804;9.220;2022-12-24T14:18:45;13.30;;;4.07;;
12441;SDS011;6285;48.804;9.220;2022-12-24T14:21:16;11.25;;;4.20;;
12441;SDS011;6285;48.804;9.220;2022-12-24T14:23:48;15.75;;;4.18;;
12441;SDS011;6285;48.804;9.220;2022-12-24T14:26:18;16.52;;;4.25;;
12441;SDS011;6285;48.804;9.220;2022-12-24T14:28:46;13.80;;;4.28;;
12441;SDS011;6285;48.804;9.220;2022-12-24T14:31:16;11.98;;;3.75;;
12441;SDS011;6285;48.804;9.220;2022-12-24T14:33:44;13.35;;;4.38;;
12441;SDS011;6285;48.804;9.220;2022-12-24T14:36:12;15.48;;;4.95;;
12441;SDS011;6285;48.804;9.220;2022-12-24T14:38:40;13.43;;;5.20;;
12441;SDS011;6285;48.804;9.220;2022-12-24T14:41:12;18.00;;;5.95;;
12441;SDS011;6285;48.804;9.220;2022-12-24T14:43:47;13.88;;;5.50;;
12441;SDS011;6285;48.804;9.220;2022-12-24T14:46:17;13.23;;;5.53;;
12441;SDS011;6285;48.804;9.220;2022-12-24T14:48:49;16.20;;;5.93;;
12441;SDS011;6285;48.804;9.220;2022-12-24T14:51:19;19.35;;;5.40;;
12441;SDS011;6285;48.804;9.220;2022-12-24T14:53:53;17.23;;;6.10;;
12441;SDS011;6285;48.804;9.220;2022-12-24T14:56:24;17.38;;;5.15;;
12441;SDS011;6285;48.804;9.220;2022-12-24T14:58:51;16.65;;;4.80;;
12441;SDS011;6285;48.804;9.220;2022-12-24T15:01:19;18.42;;;5.72;;
12441;SDS011;6285;48.804;9.220;2022-12-24T15:03:58;14.18;;;4.68;;
12441;SDS011;6285;48.804;9.220;2022-12-24T15:06:25;17.10;;;5.70;;
12441;SDS011;6285;48.804;9.220;2022-12-24T15:08:52;14.65;;;5.20;;
12441;SDS011;6285;48.804;9.220;2022-12-24T15:11:20;15.23;;;5.18;;
12441;SDS011;6285;48.804;9.220;2022-12-24T15:13:49;16.83;;;5.03;;
12441;SDS011;6285;48.804;9.220;2022-12-24T15:16:18;16.65;;;5.20;;
12441;SDS011;6285;48.804;9.220;2022-12-24T15:18:47;15.55;;;5.00;;
12441;SDS011;6285;48.804;9.220;2022-12-24T15:21:16;13.95;;;4.55;;